Time;durP1;ratioP1;P1;durP2;ratioP2;P2;SDS_P1;SDS_P2;PMS_P1;PMS_P2;Temp;Humidity;BMP_temperature;BMP_pressure;BME280_temperature;BME280_humidity;BME280_pressure;Samples;Min_cycle;Max_cycle;Signal;HPM_P1;HPM_P2
2022/10/16 14:01:33;;;;;;;4.18;2.50;;;;;;;24.91;47.97;99973.88;1082867;54;20373;-75
2022/10/16 14:02:39;;;;;;;4.07;2.63;;;;;;;24.67;48.83;99975.78;1083102;54;20050;-75
2022/10/16 14:03:45;;;;;;;3.42;1.90;;;;;;;24.55;49.26;99970.34;1082963;54;20038;-76
2022/10/16 14:04:47;;;;;;;3.75;1.90;;;;;;;24.34;49.48;99974.47;1083266;54;20049;-79
2022/10/16 14:05:54;;;;;;;4.63;2.10;;;;;;;24.29;49.34;99967.00;1082892;54;20045;-75
2022/10/16 14:06:58;;;;;;;3.55;1.90;;;;;;;24.23;49.66;99965.22;1082983;54;20042;-76
2022/10/16 14:08:08;;;;;;;4.63;2.55;;;;;;;24.12;50.26;99966.91;1083013;46;20027;-76
2022/10/16 14:09:24;;;;;;;4.90;2.67;;;;;;;23.95;50.91;99969.50;1082950;54;20033;-77
2022/10/16 14:10:42;;;;;;;4.00;2.13;;;;;;;23.81;51.01;99971.56;1083160;54;20713;-75
2022/10/16 14:11:51;;;;;;;4.60;2.38;;;;;;;23.83;50.57;99974.91;1082842;54;20050;-79
2022/10/16 14:13:03;;;;;;;3.97;2.03;;;;;;;23.77;50.27;99970.38;1082854;47;20626;-79
2022/10/16 14:14:05;;;;;;;3.53;1.80;;;;;;;23.84;50.56;99974.66;1083972;54;20061;-77
2022/10/16 14:15:20;;;;;;;5.85;1.40;;;;;;;23.77;50.59;99976.66;1084983;54;20050;-80
2022/10/16 14:16:27;;;;;;;3.88;1.48;;;;;;;23.81;50.65;99963.38;1083654;54;20042;-80
2022/10/16 14:17:35;;;;;;;3.65;1.88;;;;;;;23.82;50.30;99974.06;1082744;54;20043;-78
2022/10/16 14:18:41;;;;;;;3.08;1.40;;;;;;;23.89;50.22;99978.59;1082569;54;20039;-78
2022/10/16 14:19:47;;;;;;;2.60;1.27;;;;;;;23.96;50.17;99976.63;1082509;54;20138;-77
2022/10/16 14:20:52;;;;;;;3.92;1.25;;;;;;;23.99;50.34;99974.25;1082338;54;20062;-76
2022/10/16 14:21:56;;;;;;;5.07;1.35;;;;;;;23.99;50.40;99979.69;1082777;39;20101;-76
2022/10/16 14:23:00;;;;;;;3.33;1.40;;;;;;;24.02;50.16;99972.13;1082736;46;20168;-77
2022/10/16 14:24:14;;;;;;;2.95;1.50;;;;;;;23.98;49.93;99977.22;1082780;54;20035;-75
2022/10/16 14:25:27;;;;;;;3.13;1.50;;;;;;;23.92;50.18;99972.66;1082707;54;20142;-77
2022/10/16 14:26:31;;;;;;;2.30;1.00;;;;;;;23.98;50.19;99971.75;1082609;54;20049;-76
2022/10/16 14:27:34;;;;;;;12.88;2.03;;;;;;;23.98;50.16;99977.22;1082545;54;20142;-79
2022/10/16 14:28:44;;;;;;;3.72;1.27;;;;;;;23.99;50.12;99976.16;1082738;54;20056;-78
2022/10/16 14:31:50;;;;;;;3.22;1.30;;;;;;;23.79;49.68;99971.81;1082648;54;20042;-79
2022/10/16 14:32:59;;;;;;;3.03;1.23;;;;;;;23.79;50.44;99980.00;1082141;54;20053;-76
2022/10/16 14:34:12;;;;;;;3.03;1.50;;;;;;;23.92;50.63;99978.94;1082503;46;20042;-77
2022/10/16 14:37:06;;;;;;;4.43;1.75;;;;;;;23.66;50.71;99975.56;1082355;54;20038;-77
2022/10/16 14:38:19;;;;;;;4.13;1.50;;;;;;;23.61;50.64;99975.44;1082686;54;20062;-75
2022/10/16 14:39:26;;;;;;;4.32;1.25;;;;;;;23.73;50.67;99977.38;1082682;54;20031;-76
2022/10/16 14:40:30;;;;;;;5.32;1.52;;;;;;;23.71;50.68;99972.13;1082638;54;20034;-77
2022/10/16 14:41:43;;;;;;;4.10;2.35;;;;;;;23.75;50.69;99973.34;1082967;47;20042;-78
2022/10/16 14:42:45;;;;;;;3.78;1.80;;;;;;;23.80;50.65;99970.75;1082678;54;20206;-76
2022/10/16 14:43:54;;;;;;;3.83;1.58;;;;;;;23.80;50.69;99976.22;1082828;54;20034;-77
2022/10/16 14:44:56;;;;;;;3.80;2.00;;;;;;;23.77;51.08;99973.09;1083320;39;20455;-77
2022/10/16 14:46:05;;;;;;;3.45;1.88;;;;;;;23.71;50.96;99974.84;1082745;54;20035;-78
2022/10/16 14:47:12;;;;;;;5.45;1.75;;;;;;;23.72;51.12;99978.44;1082743;54;20058;-76
2022/10/16 14:48:18;;;;;;;3.78;1.40;;;;;;;23.62;50.62;99976.25;1082695;54;20042;-79
2022/10/16 14:49:24;;;;;;;3.30;1.40;;;;;;;23.60;50.93;99978.41;1082616;54;20134;-77
2022/10/16 14:50:26;;;;;;;3.45;1.50;;;;;;;23.68;50.65;99975.34;1082734;54;20172;-80
2022/10/16 14:51:30;;;;;;;3.00;1.40;;;;;;;23.72;51.00;99978.44;1082846;47;20555;-77
2022/10/16 14:52:32;;;;;;;3.55;1.50;;;;;;;23.71;50.61;99977.59;1082647;54;20129;-78
2022/10/16 14:53:36;;;;;;;3.20;1.27;;;;;;;23.72;50.85;99981.97;1082559;54;20046;-78
2022/10/16 14:55:02;;;;;;;5.15;1.90;;;;;;;23.56;51.14;99979.94;1082376;47;20539;-77
2022/10/16 14:56:18;;;;;;;5.90;1.75;;;;;;;23.57;51.80;99981.59;1082740;54;20038;-78
2022/10/16 14:57:26;;;;;;;4.47;2.00;;;;;;;23.57;51.40;99982.41;1082679;47;20564;-76
2022/10/16 14:58:28;;;;;;;5.63;2.25;;;;;;;23.59;51.61;99982.19;1082512;54;20141;-77
2022/10/16 14:59:38;;;;;;;3.28;1.67;;;;;;;23.56;51.72;99980.78;1082634;54;20030;-76
2022/10/16 15:00:47;;;;;;;3.80;1.65;;;;;;;23.52;51.88;99980.38;1082459;54;20069;-78
2022/10/16 15:01:52;;;;;;;3.90;1.70;;;;;;;23.57;51.91;99978.88;1082656;54;20030;-76
2022/10/16 15:02:56;;;;;;;3.58;1.80;;;;;;;23.61;51.64;99971.88;1084136;39;20424;-78
2022/10/16 15:04:15;;;;;;;3.80;1.70;;;;;;;23.63;51.53;99984.22;1082807;54;20061;-77
2022/10/16 15:05:32;;;;;;;5.13;1.83;;;;;;;23.60;52.16;99981.13;1082439;54;20035;-79
2022/10/16 15:06:56;;;;;;;5.18;1.40;;;;;;;23.57;52.09;99979.69;1082004;54;20038;-77
2022/10/16 15:08:19;;;;;;;4.57;1.77;;;;;;;23.47;52.44;99977.53;1082539;54;20030;-80
2022/10/16 15:09:26;;;;;;;3.50;1.50;;;;;;;23.53;52.71;99976.59;1082816;47;20546;-78
2022/10/16 15:10:34;;;;;;;3.80;1.55;;;;;;;23.58;52.41;99975.06;1082527;54;20559;-77
2022/10/16 15:11:48;;;;;;;4.05;1.42;;;;;;;23.54;52.51;99971.97;1082507;54;20057;-79
2022/10/16 15:12:52;;;;;;;4.97;1.58;;;;;;;23.52;52.79;99974.09;1082029;54;20126;-76
2022/10/16 15:13:56;;;;;;;3.50;1.60;;;;;;;23.52;52.72;99974.91;1082384;47;20034;-78
2022/10/16 15:14:57;;;;;;;3.13;1.40;;;;;;;23.51;52.86;99962.38;1082928;39;20535;-77
2022/10/16 15:16:01;;;;;;;3.03;1.40;;;;;;;23.60;52.72;99971.03;1082321;54;20568;-78
2022/10/16 15:17:03;;;;;;;3.45;1.42;;;;;;;23.57;52.76;99968.78;1083101;54;20150;-78
2022/10/16 15:18:08;;;;;;;3.20;1.30;;;;;;;23.58;52.71;99961.44;1083084;54;20034;-78
2022/10/16 15:19:13;;;;;;;3.10;1.30;;;;;;;23.58;52.77;99967.72;1083249;54;20549;-75
2022/10/16 15:20:23;;;;;;;3.65;1.73;;;;;;;23.56;52.88;99963.56;1082599;54;20058;-75
2022/10/16 15:21:37;;;;;;;3.35;1.55;;;;;;;23.52;52.98;99968.66;1082789;39;20526;-75
2022/10/16 15:23:14;;;;;;;3.70;1.70;;;;;;;23.54;53.01;99971.97;1082424;54;20149;-75
2022/10/16 15:24:21;;;;;;;3.50;1.90;;;;;;;23.47;53.48;99974.81;1082021;54;20026;-74
2022/10/16 15:25:31;;;;;;;3.75;1.70;;;;;;;23.48;53.44;99975.63;1083201;39;20512;-75
2022/10/16 15:26:35;;;;;;;3.22;1.55;;;;;;;23.49;53.59;99969.97;1082717;54;20069;-77
2022/10/16 15:27:39;;;;;;;4.22;1.48;;;;;;;23.36;53.79;99975.59;1083535;54;20114;-79
2022/10/16 15:28:43;;;;;;;4.32;1.70;;;;;;;23.45;54.00;99974.19;1083588;54;20035;-76
2022/10/16 15:29:45;;;;;;;3.40;1.60;;;;;;;23.42;54.25;99977.41;1082954;47;20138;-76
2022/10/16 15:30:51;;;;;;;3.67;1.73;;;;;;;23.55;53.72;99978.25;1082576;54;20042;-77
2022/10/16 15:31:55;;;;;;;3.53;2.00;;;;;;;23.50;53.89;99982.53;1082429;54;20073;-77
2022/10/16 15:32:57;;;;;;;5.93;2.35;;;;;;;23.49;54.04;99974.56;1082596;47;20080;-77
2022/10/16 15:34:13;;;;;;;6.70;2.20;;;;;;;23.35;54.51;99974.75;1082676;54;20595;-76
2022/10/16 15:35:31;;;;;;;;;;;;;;;;;;;;;
2022/10/16 15:36:43;;;;;;;3.50;1.92;;;;;;;23.32;54.64;99974.41;1082422;54;20042;-77
2022/10/16 15:37:46;;;;;;;4.75;1.73;;;;;;;23.30;55.05;99973.78;1082298;54;20570;-75
2022/10/16 15:38:50;;;;;;;3.47;1.70;;;;;;;23.34;54.74;99973.09;1082936;47;20041;-77
2022/10/16 15:39:54;;;;;;;4.25;1.55;;;;;;;23.35;54.81;99969.31;1082454;54;20150;-76
2022/10/16 15:40:59;;;;;;;4.57;1.50;;;;;;;23.31;54.77;99972.72;1082945;39;20866;-75
2022/10/16 15:42:00;;;;;;;4.53;1.73;;;;;;;23.28;55.04;99978.63;1082400;54;20644;-75
2022/10/16 15:43:04;;;;;;;4.65;1.52;;;;;;;23.28;55.06;99967.72;1082529;47;20040;-76
2022/10/16 15:44:32;;;;;;;4.03;1.50;;;;;;;23.21;55.25;99974.13;1085239;54;20034;-75
2022/10/16 15:46:23;;;;;;;6.82;2.15;;;;;;;23.06;55.98;99976.38;1085615;54;20042;-76
2022/10/16 15:51:13;;;;;;;5.07;1.90;;;;;;;22.93;56.41;99985.53;1085996;54;20053;-79
2022/10/16 15:52:16;;;;;;;3.97;1.90;;;;;;;22.99;56.59;99978.34;1082610;54;20031;-77
2022/10/16 15:53:20;;;;;;;5.22;2.90;;;;;;;23.03;56.18;99979.56;1082515;54;20043;-77
2022/10/16 15:54:24;;;;;;;7.63;5.18;;;;;;;23.00;56.61;99980.00;1082294;54;20038;-76
2022/10/16 15:55:26;;;;;;;13.13;9.10;;;;;;;22.98;56.76;99979.41;1083112;31;20489;-76
2022/10/16 15:56:33;;;;;;;11.02;7.32;;;;;;;22.96;56.91;99986.97;1082279;54;20038;-76
2022/10/16 15:57:34;;;;;;;12.25;9.43;;;;;;;22.95;56.82;99985.34;1082350;54;20077;-76
2022/10/16 15:58:38;;;;;;;13.20;8.32;;;;;;;23.03;56.82;99985.03;1082430;54;20038;-76
2022/10/16 15:59:40;;;;;;;8.98;6.00;;;;;;;22.98;56.94;99980.25;1082813;47;20125;-76
2022/10/16 16:00:44;;;;;;;7.78;5.45;;;;;;;22.95;57.09;99986.16;1082169;54;20049;-78
2022/10/16 16:01:45;;;;;;;6.30;4.35;;;;;;;23.02;57.05;99986.06;1082480;54;20094;-77
2022/10/16 16:02:54;;;;;;;5.97;3.58;;;;;;;22.99;56.91;99992.81;1082295;54;20038;-77
2022/10/16 16:03:56;;;;;;;4.63;2.80;;;;;;;23.02;56.78;99981.44;1083050;39;20453;-76
2022/10/16 16:05:00;;;;;;;5.82;2.70;;;;;;;22.94;57.20;99986.38;1082516;54;20057;-79
2022/10/16 16:06:11;;;;;;;4.78;2.30;;;;;;;22.97;56.79;99988.63;1082459;54;20065;-81
2022/10/16 16:07:12;;;;;;;3.80;2.17;;;;;;;22.84;57.17;99978.72;1083086;31;20540;-79
2022/10/16 16:08:16;;;;;;;5.32;2.08;;;;;;;22.93;56.94;99977.38;1083580;54;20034;-76
2022/10/16 16:09:18;;;;;;;4.72;2.05;;;;;;;22.88;57.10;99980.78;1083060;54;20149;-79
2022/10/16 16:10:23;;;;;;;4.28;2.25;;;;;;;22.90;57.15;99989.56;1084806;54;20027;-77
2022/10/16 16:11:31;;;;;;;4.18;2.55;;;;;;;22.84;57.50;99982.31;1085735;54;20062;-77
2022/10/16 16:12:58;;;;;;;5.95;2.28;;;;;;;22.81;57.67;99987.38;1083971;54;20524;-75
2022/10/16 16:14:03;;;;;;;4.90;2.22;;;;;;;22.57;58.33;99979.88;1082945;54;20050;-76
2022/10/16 16:15:07;;;;;;;4.72;2.13;;;;;;;22.58;58.51;99978.78;1082360;54;20647;-77
2022/10/16 16:16:14;;;;;;;5.22;2.10;;;;;;;22.61;58.12;99984.84;1082704;54;20041;-76
2022/10/16 16:17:15;;;;;;;5.75;4.00;;;;;;;22.47;58.50;99984.16;1082720;54;20125;-76
2022/10/16 16:18:19;;;;;;;10.18;4.28;;;;;;;22.42;58.65;99982.13;1083062;54;20039;-77
2022/10/16 16:19:24;;;;;;;4.97;2.70;;;;;;;22.44;58.94;99982.72;1083279;54;20041;-76
2022/10/16 16:20:28;;;;;;;7.43;2.75;;;;;;;22.39;58.90;99985.25;1084017;54;20042;-76
2022/10/16 16:21:32;;;;;;;5.57;2.10;;;;;;;22.32;59.17;99982.63;1084028;54;20046;-76
2022/10/16 16:22:36;;;;;;;5.53;2.20;;;;;;;22.24;59.57;99983.72;1083880;46;20134;-77
2022/10/16 16:23:49;;;;;;;5.97;1.90;;;;;;;22.25;59.29;99985.38;1083077;54;20203;-78
2022/10/16 16:24:54;;;;;;;4.85;1.98;;;;;;;22.19;59.38;99980.84;1082850;54;20165;-80
2022/10/16 16:26:10;;;;;;;4.88;1.92;;;;;;;22.19;59.39;99985.44;1083909;54;20041;-75
2022/10/16 16:27:17;;;;;;;3.80;1.63;;;;;;;22.23;59.27;99987.50;1084838;54;20089;-79
2022/10/16 16:28:30;;;;;;;3.45;1.65;;;;;;;22.29;58.99;99986.59;1084459;54;20045;-79
2022/10/16 16:29:32;;;;;;;3.65;1.70;;;;;;;22.18;59.24;99987.34;1083040;54;20299;-78
2022/10/16 16:30:36;;;;;;;3.35;1.60;;;;;;;22.25;59.00;99987.25;1083064;54;20034;-76
2022/10/16 16:31:49;;;;;;;4.60;1.80;;;;;;;22.19;59.14;99985.44;1082882;54;20038;-76
2022/10/16 16:34:21;;;;;;;5.40;1.95;;;;;;;22.05;59.57;99991.03;1083025;54;20034;-79
2022/10/16 16:35:25;;;;;;;3.85;1.70;;;;;;;22.08;59.65;99997.91;1083249;46;20042;-80
2022/10/16 16:36:34;;;;;;;4.72;1.58;;;;;;;22.10;59.30;99993.06;1083304;54;20050;-80
2022/10/16 16:37:38;;;;;;;2.80;1.30;;;;;;;22.07;59.73;99991.59;1083935;39;20465;-75
2022/10/16 16:38:54;;;;;;;3.63;1.55;;;;;;;22.00;59.78;99996.28;1082797;54;20053;-75
2022/10/16 16:40:01;;;;;;;5.38;1.45;;;;;;;22.05;59.51;99999.19;1082635;54;20054;-76
2022/10/16 16:41:15;;;;;;;5.13;1.90;;;;;;;22.00;59.58;99995.47;1082255;54;20046;-78
2022/10/16 16:42:23;;;;;;;4.93;1.60;;;;;;;22.00;59.73;99999.00;1082974;39;20703;-76
2022/10/16 16:43:30;;;;;;;3.15;1.40;;;;;;;22.04;59.56;100004.81;1082859;54;20031;-77
2022/10/16 16:44:35;;;;;;;4.38;1.60;;;;;;;22.06;59.70;99991.84;1082996;54;20069;-78
2022/10/16 16:45:37;;;;;;;5.72;1.70;;;;;;;22.08;59.58;100003.34;1083152;47;20038;-78
2022/10/16 16:46:42;;;;;;;7.22;2.42;;;;;;;22.06;59.66;99994.56;1084359;54;20030;-76
2022/10/16 16:47:44;;;;;;;4.97;2.55;;;;;;;22.09;59.54;100000.38;1084668;54;20564;-77
2022/10/16 16:48:49;;;;;;;6.07;2.67;;;;;;;22.12;59.13;99999.97;1084838;54;20155;-77
2022/10/16 16:49:54;;;;;;;4.10;2.47;;;;;;;22.12;59.02;99999.09;1085057;54;20138;-78
2022/10/16 16:51:03;;;;;;;5.53;2.08;;;;;;;22.10;59.22;100001.25;1085241;46;20035;-76
2022/10/16 16:52:10;;;;;;;4.13;2.25;;;;;;;22.11;59.16;100003.72;1084812;54;20035;-76
2022/10/16 16:53:13;;;;;;;5.78;3.00;;;;;;;22.09;59.47;100005.00;1084178;54;20081;-80
2022/10/16 16:54:19;;;;;;;8.23;3.40;;;;;;;22.07;59.74;100007.13;1085146;54;20030;-76
2022/10/16 16:55:21;;;;;;;6.00;2.60;;;;;;;22.02;59.99;100005.06;1085123;54;20050;-76
2022/10/16 16:56:27;;;;;;;5.75;2.75;;;;;;;22.01;60.03;100006.13;1085527;54;20206;-78
2022/10/16 16:57:29;;;;;;;9.30;2.63;;;;;;;21.95;60.04;100009.72;1085892;54;20058;-80
2022/10/16 16:58:34;;;;;;;5.40;2.80;;;;;;;21.92;60.09;100010.97;1085622;46;20042;-77
2022/10/16 17:02:05;;;;;;;;;;;;;;;;;;;;;
2022/10/16 17:06:51;;;;;;;;;;;;;;;;;;;;;
2022/10/16 17:08:12;;;;;;;3.95;2.10;;;;;;;21.37;61.43;100019.66;1084368;54;20044;-80
2022/10/16 17:09:18;;;;;;;3.75;1.95;;;;;;;21.40;61.24;100018.41;1084841;54;20035;-76
2022/10/16 17:14:12;;;;;;;4.70;2.33;;;;;;;21.39;61.63;100033.91;1084597;54;20034;-80
2022/10/16 17:18:23;;;;;;;5.13;2.80;;;;;;;21.44;61.81;100030.53;1085465;54;20038;-79
2022/10/16 17:19:35;;;;;;;4.60;2.75;;;;;;;21.45;61.69;100032.16;1086373;54;20042;-76
2022/10/16 17:21:29;;;;;;;5.05;2.88;;;;;;;21.29;62.20;100045.22;1086506;46;20646;-78
2022/10/16 17:24:05;;;;;;;8.18;3.25;;;;;;;21.29;62.55;100037.06;1085818;54;20058;-77
2022/10/16 17:43:05;;;;;;;7.28;2.90;;;;;;;20.61;65.50;100051.84;1082280;54;20034;-76
2022/10/16 19:57:59;;;;;;;8.27;5.65;;;;;;;19.56;69.02;100160.78;1075594;54;25729;-80
2022/10/16 19:59:03;;;;;;;9.52;6.55;;;;;;;19.11;70.89;100155.75;1085576;54;20591;-79
2022/10/16 20:00:13;;;;;;;8.73;6.40;;;;;;;18.79;72.31;100156.13;1085801;54;20033;-79
2022/10/16 20:01:26;;;;;;;8.85;5.93;;;;;;;18.73;72.28;100173.13;1086509;54;20034;-81
2022/10/16 20:02:46;;;;;;;15.20;7.50;;;;;;;18.59;73.01;100172.19;1086402;54;20041;-82
2022/10/16 20:03:49;;;;;;;10.18;6.78;;;;;;;18.44;73.58;100171.44;1086094;54;20063;-80
2022/10/16 20:04:53;;;;;;;10.18;6.50;;;;;;;18.48;73.31;100173.56;1085746;54;20098;-80
2022/10/16 20:05:59;;;;;;;9.73;6.30;;;;;;;18.39;73.91;100169.31;1086555;39;20608;-80
2022/10/16 20:07:03;;;;;;;11.15;6.63;;;;;;;18.36;73.58;100172.38;1086762;39;20449;-80
2022/10/16 20:08:05;;;;;;;7.38;5.90;;;;;;;18.32;73.92;100173.81;1085623;54;20045;-80
2022/10/16 20:09:27;;;;;;;8.23;5.80;;;;;;;18.41;73.60;100175.38;1086311;39;20418;-79
2022/10/16 20:11:23;;;;;;;8.23;6.57;;;;;;;18.28;74.20;100184.16;1086378;54;20045;-81
2022/10/16 20:12:51;;;;;;;10.13;5.65;;;;;;;18.30;73.61;100179.41;1086632;46;20098;-79
2022/10/16 20:14:27;;;;;;;7.43;5.28;;;;;;;18.29;74.13;100187.72;1086635;54;20034;-80
2022/10/16 20:17:57;;;;;;;8.23;5.68;;;;;;;18.15;74.43;100192.16;1085088;54;20087;-79
2022/10/16 20:19:28;;;;;;;8.50;5.25;;;;;;;18.07;74.72;100193.94;1084678;54;20056;-81
2022/10/16 20:21:23;;;;;;;10.27;5.80;;;;;;;18.06;74.82;100188.72;1085470;54;20038;-82
2022/10/16 20:22:15;;;;;;;8.23;5.50;;;;;;;18.02;74.67;100198.25;1085025;54;20064;-80
2022/10/16 20:23:17;;;;;;;8.35;5.90;;;;;;;17.99;75.07;100196.78;1085053;54;20037;-80
2022/10/16 20:24:22;;;;;;;8.10;5.43;;;;;;;18.02;74.76;100198.25;1085008;54;20042;-81
2022/10/16 20:25:23;;;;;;;7.13;4.60;;;;;;;18.05;74.89;100209.53;1084991;54;20038;-80
2022/10/16 20:26:28;;;;;;;7.97;5.70;;;;;;;18.03;74.76;100200.75;1084757;54;20026;-79
2022/10/16 20:27:36;;;;;;;8.32;5.43;;;;;;;17.98;75.22;100200.50;1085024;54;20039;-79
2022/10/16 20:28:39;;;;;;;10.30;5.43;;;;;;;17.89;75.60;100204.31;1085076;54;20738;-79
2022/10/16 20:29:46;;;;;;;7.40;5.35;;;;;;;17.95;75.21;100198.13;1085041;54;20626;-78
2022/10/16 20:30:49;;;;;;;7.25;4.70;;;;;;;17.94;75.33;100207.28;1084594;54;20639;-79
2022/10/16 20:31:54;;;;;;;7.40;4.65;;;;;;;17.97;74.96;100211.50;1085656;54;20706;-79
2022/10/16 20:32:56;;;;;;;10.65;5.00;;;;;;;18.00;74.97;100211.94;1085426;54;20046;-79
2022/10/16 20:34:10;;;;;;;6.78;4.47;;;;;;;18.04;74.84;100198.91;1085143;54;20091;-81
2022/10/16 20:35:11;;;;;;;6.80;4.63;;;;;;;18.03;75.16;100208.03;1085366;46;20050;-81
2022/10/16 20:36:17;;;;;;;6.57;4.35;;;;;;;18.04;75.05;100212.44;1084949;54;20041;-80
2022/10/16 20:37:21;;;;;;;6.43;4.47;;;;;;;18.05;74.86;100208.66;1085130;54;20050;-80
2022/10/16 20:38:25;;;;;;;6.78;4.20;;;;;;;18.04;75.10;100218.66;1085371;54;20046;-82
2022/10/16 20:39:36;;;;;;;7.72;4.90;;;;;;;17.95;75.32;100214.34;1085494;54;20045;-81
2022/10/16 20:40:40;;;;;;;7.38;4.50;;;;;;;17.89;75.72;100226.75;1085584;54;20034;-79
2022/10/16 20:41:44;;;;;;;7.82;4.97;;;;;;;17.88;75.59;100221.56;1085747;39;20444;-82
2022/10/16 20:42:46;;;;;;;6.85;4.60;;;;;;;17.93;75.66;100228.09;1085730;54;20034;-79
2022/10/16 20:43:52;;;;;;;7.07;4.68;;;;;;;17.93;75.46;100230.78;1085716;54;20118;-80
2022/10/16 20:44:59;;;;;;;7.88;4.10;;;;;;;17.91;75.78;100237.38;1085524;54;20060;-79
2022/10/16 20:46:03;;;;;;;8.60;5.55;;;;;;;17.90;75.90;100233.84;1085856;46;20039;-79
2022/10/16 20:47:08;;;;;;;7.80;5.22;;;;;;;17.86;75.84;100234.41;1085475;54;20034;-80
2022/10/16 20:48:10;;;;;;;7.05;5.32;;;;;;;17.81;76.00;100229.56;1085732;39;20410;-79
2022/10/16 20:49:14;;;;;;;7.88;5.85;;;;;;;17.78;76.16;100236.22;1085000;54;20034;-79
2022/10/16 20:50:16;;;;;;;8.60;5.00;;;;;;;17.79;76.32;100237.03;1085321;54;20092;-78
2022/10/16 20:51:22;;;;;;;10.57;5.45;;;;;;;17.70;76.67;100243.56;1085400;54;20030;-80
2022/10/16 20:52:24;;;;;;;7.53;5.13;;;;;;;17.73;76.82;100243.19;1085482;54;20038;-78
2022/10/16 20:53:29;;;;;;;8.15;5.38;;;;;;;17.76;76.42;100240.09;1086376;54;20034;-80
2022/10/16 20:54:33;;;;;;;6.95;5.13;;;;;;;17.73;76.76;100240.50;1087504;54;20045;-79
2022/10/16 20:55:36;;;;;;;9.50;5.10;;;;;;;17.71;76.61;100242.53;1087271;54;20047;-79
2022/10/16 20:56:41;;;;;;;7.47;4.90;;;;;;;17.75;76.56;100238.44;1086150;54;20034;-81
2022/10/16 20:57:42;;;;;;;7.68;5.22;;;;;;;17.75;76.72;100241.97;1085559;54;20067;-77
2022/10/16 20:58:47;;;;;;;7.50;4.72;;;;;;;17.77;76.60;100241.78;1085380;54;21570;-78
2022/10/16 20:59:53;;;;;;;6.50;4.47;;;;;;;17.78;76.40;100247.03;1087188;39;20217;-77
2022/10/16 21:01:06;;;;;;;8.57;4.45;;;;;;;17.73;76.50;100245.91;1085828;54;20046;-77
2022/10/16 21:02:13;;;;;;;7.97;4.40;;;;;;;17.74;76.57;100244.88;1086146;54;20039;-79
2022/10/16 21:03:15;;;;;;;6.80;4.65;;;;;;;17.73;76.54;100248.59;1086124;54;20073;-80
2022/10/16 21:04:19;;;;;;;7.63;4.90;;;;;;;17.75;76.43;100246.56;1086577;39;20834;-79
2022/10/16 21:05:21;;;;;;;7.40;4.65;;;;;;;17.76;76.63;100259.03;1086553;54;20039;-79
2022/10/16 21:06:25;;;;;;;8.73;4.78;;;;;;;17.76;76.26;100242.81;1086623;54;20038;-80
2022/10/16 21:07:27;;;;;;;7.43;4.93;;;;;;;17.78;76.46;100254.28;1086956;54;20045;-79
2022/10/16 21:08:32;;;;;;;8.50;5.50;;;;;;;17.77;76.30;100249.88;1086988;54;20037;-79
2022/10/16 21:09:36;;;;;;;7.80;5.50;;;;;;;17.73;76.16;100245.91;1086862;54;20057;-78
2022/10/16 21:10:37;;;;;;;9.10;5.50;;;;;;;17.70;76.49;100255.22;1086723;54;20054;-78
2022/10/16 21:11:41;;;;;;;10.05;6.13;;;;;;;17.68;76.69;100256.41;1086643;54;20036;-79
2022/10/16 21:12:43;;;;;;;8.25;5.05;;;;;;;17.68;76.64;100256.41;1086855;54;20757;-79
2022/10/16 21:13:57;;;;;;;9.98;5.18;;;;;;;17.68;76.81;100257.28;1087000;54;20034;-80
2022/10/16 21:15:00;;;;;;;7.55;5.30;;;;;;;17.67;76.83;100257.44;1086738;54;20034;-80
2022/10/16 21:16:14;;;;;;;8.48;5.47;;;;;;;17.67;76.46;100261.00;1089867;39;20493;-80
2022/10/16 21:17:19;;;;;;;7.03;4.55;;;;;;;17.69;76.94;100268.91;1086618;54;20073;-80
2022/10/16 21:18:20;;;;;;;7.72;4.90;;;;;;;17.69;76.81;100266.22;1086989;54;20035;-80
2022/10/16 21:19:34;;;;;;;7.10;4.60;;;;;;;17.71;76.58;100264.16;1086938;54;20038;-80
2022/10/16 21:20:41;;;;;;;7.45;5.13;;;;;;;17.68;76.63;100256.41;1086784;54;20040;-79
2022/10/16 21:21:52;;;;;;;9.02;5.03;;;;;;;17.71;76.75;100264.16;1086621;54;20039;-81
2022/10/16 21:22:56;;;;;;;7.90;5.30;;;;;;;17.67;76.60;100265.56;1086798;54;20046;-80
2022/10/16 21:24:03;;;;;;;10.32;5.75;;;;;;;17.67;76.39;100273.66;1086834;54;20082;-82
2022/10/16 21:25:06;;;;;;;8.60;5.50;;;;;;;17.65;76.77;100270.31;1086623;54;20058;-82
2022/10/16 21:26:12;;;;;;;8.90;5.38;;;;;;;17.63;76.90;100267.78;1086797;54;20943;-79
2022/10/16 21:27:13;;;;;;;7.65;5.05;;;;;;;17.58;77.08;100276.44;1086666;54;20738;-79
2022/10/16 21:28:17;;;;;;;7.72;4.70;;;;;;;17.61;76.72;100267.97;1086820;54;21267;-79
2022/10/16 21:29:22;;;;;;;8.88;4.97;;;;;;;17.61;76.49;100272.56;1086872;54;20043;-79
2022/10/16 21:30:27;;;;;;;7.30;4.88;;;;;;;17.65;76.87;100270.31;1087100;39;20648;-79
2022/10/16 21:31:47;;;;;;;7.80;5.03;;;;;;;17.54;76.84;100275.16;1086772;54;20042;-80
2022/10/16 21:32:51;;;;;;;7.88;4.93;;;;;;;17.53;76.89;100272.63;1086782;54;20076;-79
2022/10/16 21:33:58;;;;;;;12.18;5.72;;;;;;;17.55;77.30;100267.88;1086730;54;20102;-80
2022/10/16 21:34:59;;;;;;;7.65;5.32;;;;;;;17.53;77.02;100281.59;1086897;54;20046;-79
2022/10/16 21:36:06;;;;;;;8.00;5.30;;;;;;;17.53;77.11;100275.31;1086507;54;20058;-80
2022/10/16 21:37:13;;;;;;;9.13;5.97;;;;;;;17.47;77.20;100276.94;1086585;54;20049;-79
2022/10/16 21:38:15;;;;;;;8.43;5.78;;;;;;;17.47;77.55;100282.34;1086677;54;20042;-81
2022/10/16 21:39:22;;;;;;;9.02;5.60;;;;;;;17.45;77.52;100278.97;1086599;54;20106;-80
2022/10/16 21:40:27;;;;;;;8.43;5.20;;;;;;;17.42;77.69;100280.19;1086601;54;20038;-79
2022/10/16 21:41:40;;;;;;;7.50;5.55;;;;;;;17.40;77.86;100282.22;1087037;54;20035;-79
2022/10/16 21:42:44;;;;;;;7.88;5.28;;;;;;;17.42;77.79;100284.75;1086771;54;20034;-79
2022/10/16 21:43:50;;;;;;;7.90;5.43;;;;;;;17.41;77.90;100289.31;1087326;39;20783;-80
2022/10/16 21:44:51;;;;;;;8.07;5.20;;;;;;;17.35;77.50;100284.63;1086920;54;20046;-78
2022/10/16 21:45:56;;;;;;;7.45;5.13;;;;;;;17.39;77.66;100291.34;1087003;54;20047;-78
2022/10/16 21:47:07;;;;;;;8.77;5.38;;;;;;;17.34;77.95;100290.22;1087115;54;20042;-81
2022/10/16 21:48:11;;;;;;;8.10;5.28;;;;;;;17.31;77.80;100286.84;1086788;54;20053;-81
2022/10/16 21:49:15;;;;;;;9.23;5.45;;;;;;;17.31;77.75;100286.03;1086515;54;20049;-78
2022/10/16 21:50:21;;;;;;;9.90;5.32;;;;;;;17.31;77.96;100288.72;1087057;54;20054;-80
2022/10/16 21:51:31;;;;;;;7.95;5.07;;;;;;;17.29;78.03;100291.59;1087090;54;20045;-79
2022/10/16 21:52:35;;;;;;;7.80;5.13;;;;;;;17.24;78.18;100285.09;1086967;54;20153;-80
